sensor_id;sensor_type;location;lat;lon;timestamp;pressure;altitude;pressure_sealevel;temperature;humidity
61740;BME280;47645;45.288;12.038;2022-09-03T00:04:07;1014.6258973769858;;;21.094921875;53.08659241524092
61740;BME280;47645;45.288;12.038;2022-09-03T00:14:06;1014.4101192249105;;;20.97265625;53.54686703651732
61740;BME280;47645;45.288;12.038;2022-09-03T00:24:08;1014.2961705829298;;;20.89609375;53.72217256719778
61740;BME280;47645;45.288;12.038;2022-09-03T00:34:10;1014.4119266493681;;;20.77890625;53.70678611920729
61740;BME280;47645;45.288;12.038;2022-09-03T00:44:20;1014.5102011193835;;;20.4986328125;54.60206895288566
61740;BME280;47645;45.288;12.038;2022-09-03T00:54:14;1014.5075315138774;;;20.4935546875;54.40157555587685
61740;BME280;47645;45.288;12.038;2022-09-03T01:04:23;1014.7275034260512;;;20.5904296875;53.59796038069908
61740;BME280;47645;45.288;12.038;2022-09-03T01:14:17;1014.8120250957805;;;20.269140625;54.94898900586264
61740;BME280;47645;45.288;12.038;2022-09-03T01:25:28;1014.7737945830489;;;20.4986328125;53.70969170554552
61740;BME280;47645;45.288;12.038;2022-09-03T01:34:21;1014.8949465965607;;;20.3150390625;54.82462959165509
61740;BME280;47645;45.288;12.038;2022-09-03T01:44:23;1015.012262330004;;;20.055078125;58.024333398112525
61740;BME280;47645;45.288;12.038;2022-09-03T01:54:26;1015.1000895294679;;;20.05;58.81771977396205
61740;BME280;47645;45.288;12.038;2022-09-03T02:04:18;1014.8293638331971;;;19.519921875;60.64660115232371
61740;BME280;47645;45.288;12.038;2022-09-03T02:14:17;1014.8824994641944;;;19.402734375;61.15325651844091
61740;BME280;47645;45.288;12.038;2022-09-03T02:24:18;1014.9385728101754;;;19.61171875;65.59280255571258
61740;BME280;47645;45.288;12.038;2022-09-03T02:34:19;1014.897571644292;;;19.19375;68.45331815438404
61740;BME280;47645;45.288;12.038;2022-09-03T02:44:27;1014.7182135364108;;;19.005078125;69.69022234936419
61740;BME280;47645;45.288;12.038;2022-09-03T02:54:21;1014.5594859248922;;;19.1376953125;65.27472674951555
61740;BME280;47645;45.288;12.038;2022-09-03T03:04:23;1014.4972258128632;;;19.4740234375;60.13183520687745
61740;BME280;47645;45.288;12.038;2022-09-03T03:14:23;1014.6163330465096;;;19.428125;63.84649713090415
61740;BME280;47645;45.288;12.038;2022-09-03T03:24:24;1014.5859523153625;;;19.49453125;61.3797716498094
61740;BME280;47645;45.288;12.038;2022-09-03T03:34:26;1014.6621078495132;;;18.791015625;66.48700836163009
61740;BME280;47645;45.288;12.038;2022-09-03T03:44:27;1014.5972460885084;;;18.984765625;61.52052332830821
61740;BME280;47645;45.288;12.038;2022-09-03T03:54:27;1014.5773871186927;;;19.2140625;59.72703886175192
61740;BME280;47645;45.288;12.038;2022-09-03T04:04:28;1014.6135709856391;;;19.081640625;61.89427892184064
61740;BME280;47645;45.288;12.038;2022-09-03T04:14:29;1014.6277759243399;;;18.6431640625;64.2976956017756
61740;BME280;47645;45.288;12.038;2022-09-03T04:24:31;1014.6728649785741;;;19.0611328125;62.49687967441518
61740;BME280;47645;45.288;12.038;2022-09-03T04:34:32;1014.5664895664024;;;18.449609375;63.2994221680661
61740;BME280;47645;45.288;12.038;2022-09-03T04:44:37;1014.4715738855095;;;19.198828125;58.410765895489504
61740;BME280;47645;45.288;12.038;2022-09-03T04:54:34;1014.4958290381925;;;19.081640625;59.686884376710886
61740;BME280;47645;45.288;12.038;2022-09-03T05:09:35;1014.642832210094;;;19.0712890625;62.95747975307715
61740;BME280;47645;45.288;12.038;2022-09-03T05:14:36;1014.6269890061111;;;19.2140625;66.77369686666998
61740;BME280;47645;45.288;12.038;2022-09-03T05:24:37;1014.5998274948715;;;19.1783203125;66.87976065729384
61740;BME280;47645;45.288;12.038;2022-09-03T05:34:38;1014.6484120743781;;;19.4689453125;64.85562463666547
61740;BME280;47645;45.288;12.038;2022-09-03T05:44:39;1014.8421378637363;;;19.499609375;65.87539840636016
61740;BME280;47645;45.288;12.038;2022-09-03T05:54:40;1014.8604110990359;;;19.5453125;66.03165265573163
61740;BME280;47645;45.288;12.038;2022-09-03T06:04:41;1014.7849836467874;;;19.6830078125;66.39309656833616
61740;BME280;47645;45.288;12.038;2022-09-03T06:14:42;1014.7304770304327;;;19.8869140625;65.36914867043042
61740;BME280;47645;45.288;12.038;2022-09-03T06:24:43;1014.6620466638867;;;20.162109375;64.08007206866915
61740;BME280;47645;45.288;12.038;2022-09-03T06:34:44;1014.6205801391984;;;20.5138671875;63.18098875258189
61740;BME280;47645;45.288;12.038;2022-09-03T06:44:45;1014.4126561152162;;;21.1154296875;64.75482028172576
61740;BME280;47645;45.288;12.038;2022-09-03T06:54:46;1014.4699943578413;;;21.212109375;65.53075851154954
61740;BME280;47645;45.288;12.038;2022-09-03T07:04:48;1014.6124075416203;;;21.2478515625;59.98935698549831
61740;BME280;47645;45.288;12.038;2022-09-03T07:14:48;1014.8048809768314;;;21.9666015625;64.88092475545747
61740;BME280;47645;45.288;12.038;2022-09-03T07:24:51;1014.8975264507183;;;22.0787109375;64.09778045326097
61740;BME280;47645;45.288;12.038;2022-09-03T07:34:52;1014.8932885156827;;;22.3794921875;65.5114540172271
61740;BME280;47645;45.288;12.038;2022-09-03T07:44:52;1015.002112942095;;;22.9146484375;64.39006127991178
61740;BME280;47645;45.288;12.038;2022-09-03T07:54:53;1014.9780739704601;;;23.3072265625;64.10099860131551
61740;BME280;47645;45.288;12.038;2022-09-03T08:04:55;1015.0951836021351;;;23.8119140625;63.81687530638706
61740;BME280;47645;45.288;12.038;2022-09-03T08:14:58;1015.102717223105;;;24.3828125;59.385494170955326
61740;BME280;47645;45.288;12.038;2022-09-03T08:24:58;1015.3577803894352;;;24.7498046875;58.604506688803845
61740;BME280;47645;45.288;12.038;2022-09-03T08:34:59;1015.3239782888476;;;24.7548828125;58.47268720430737
61740;BME280;47645;45.288;12.038;2022-09-03T08:45:00;1015.3500732489297;;;25.0912109375;57.34885919746302
61740;BME280;47645;45.288;12.038;2022-09-03T08:55:13;1015.5372673094386;;;25.544921875;54.330050932016874
61740;BME280;47645;45.288;12.038;2022-09-03T09:05:06;1015.3555301572364;;;25.61640625;53.96207680809509
61740;BME280;47645;45.288;12.038;2022-09-03T09:15:08;1015.3493983912318;;;26.126171875;53.293761040446775
61740;BME280;47645;45.288;12.038;2022-09-03T09:25:09;1015.4497401245945;;;26.35546875;54.89331340937769
61740;BME280;47645;45.288;12.038;2022-09-03T09:30:05;1015.4774068249816;;;26.3095703125;56.3860444646291
61740;BME280;47645;45.288;12.038;2022-09-03T09:40:07;1015.4962307308234;;;26.5287109375;56.068929038693184
61740;BME280;47645;45.288;12.038;2022-09-03T09:50:17;1015.531047135482;;;27.1048828125;53.81340379447624
61740;BME280;47645;45.288;12.038;2022-09-03T10:00:12;1015.4401580003255;;;27.6197265625;50.315537398875136
61740;BME280;47645;45.288;12.038;2022-09-03T10:10:15;1015.4926688517609;;;28.2466796875;51.37092517994082
61740;BME280;47645;45.288;12.038;2022-09-03T10:20:47;1015.6008247030018;;;28.476171875;50.34434263347543
61740;BME280;47645;45.288;12.038;2022-09-03T10:30:13;1015.5747546607148;;;29.3732421875;48.229714444862694
61740;BME280;47645;45.288;12.038;2022-09-03T10:40:19;1015.6225587081856;;;29.592578125;47.098290608169286
61740;BME280;47645;45.288;12.038;2022-09-03T10:50:20;1015.5676965985498;;;30.1533203125;46.244048603315015
61740;BME280;47645;45.288;12.038;2022-09-03T11:00:18;1015.4355120724335;;;29.6740234375;44.11450125346907
61740;BME280;47645;45.288;12.038;2022-09-03T11:10:21;1015.322355956466;;;30.642578125;45.005620061811015
61740;BME280;47645;45.288;12.038;2022-09-03T11:20:22;1015.2251848602236;;;30.612109375;44.61233596457467
61740;BME280;47645;45.288;12.038;2022-09-03T11:30:24;1015.3406975238603;;;29.8880859375;45.351493270768486
61740;BME280;47645;45.288;12.038;2022-09-03T11:40:32;1015.3220234289137;;;29.9900390625;44.766630727461084
61740;BME280;47645;45.288;12.038;2022-09-03T11:50:26;1015.3528455127397;;;30.7548828125;44.21413394333417
61740;BME280;47645;45.288;12.038;2022-09-03T12:00:26;1015.3232371261915;;;29.9595703125;44.80739084334406
61740;BME280;47645;45.288;12.038;2022-09-03T12:10:35;1015.3758982620872;;;29.7658203125;44.23799277424596
61740;BME280;47645;45.288;12.038;2022-09-03T12:20:29;1015.3140309616809;;;29.73515625;45.0867587519306
61740;BME280;47645;45.288;12.038;2022-09-03T12:30:31;1015.3871985868228;;;29.8830078125;43.225083383650485
61740;BME280;47645;45.288;12.038;2022-09-03T12:40:32;1015.2978129449465;;;30.2908203125;43.39664702365747
61740;BME280;47645;45.288;12.038;2022-09-03T12:50:34;1015.2678109988905;;;30.1328125;43.12633506077866
61740;BME280;47645;45.288;12.038;2022-09-03T13:00:38;1015.1770647876293;;;30.448828125;42.61098317619831
61740;BME280;47645;45.288;12.038;2022-09-03T13:10:38;1014.9874650783945;;;29.92890625;43.37763596095284
61740;BME280;47645;45.288;12.038;2022-09-03T13:20:45;1014.8302887100679;;;29.8525390625;43.57655452657367
61740;BME280;47645;45.288;12.038;2022-09-03T13:30:47;1014.7837424072719;;;30.8669921875;41.54267002837042
61740;BME280;47645;45.288;12.038;2022-09-03T13:40:45;1014.7034060978463;;;30.84140625;40.99041224687533
61740;BME280;47645;45.288;12.038;2022-09-03T13:50:47;1014.613776798674;;;30.612109375;41.73656560239304
61740;BME280;47645;45.288;12.038;2022-09-03T14:00:48;1014.5084858802988;;;30.3775390625;42.22948406446605
61740;BME280;47645;45.288;12.038;2022-09-03T14:10:59;1014.3846683127842;;;30.2755859375;42.29388382937264
61740;BME280;47645;45.288;12.038;2022-09-03T14:20:54;1014.4318264321223;;;30.2908203125;42.88053895617016
61740;BME280;47645;45.288;12.038;2022-09-03T14:30:56;1014.3944410004104;;;30.33671875;42.14142696578882
61740;BME280;47645;45.288;12.038;2022-09-03T14:40:59;1014.2417093280969;;;30.4845703125;42.276551809692286
61740;BME280;47645;45.288;12.038;2022-09-03T14:51:04;1014.2848467541922;;;30.5560546875;41.81288766159408
61740;BME280;47645;45.288;12.038;2022-09-03T15:00:59;1014.4642175971394;;;30.540625;41.83636797218694
61740;BME280;47645;45.288;12.038;2022-09-03T15:10:58;1014.4294430680058;;;30.403125;42.54048752087445
61740;BME280;47645;45.288;12.038;2022-09-03T15:21:03;1014.4534979508791;;;30.1583984375;42.434498940134496
61740;BME280;47645;45.288;12.038;2022-09-03T15:31:02;1014.3235197392357;;;30.4234375;42.09457609418458
61740;BME280;47645;45.288;12.038;2022-09-03T15:41:04;1014.3457663668621;;;30.3521484375;41.99474874111422
61740;BME280;47645;45.288;12.038;2022-09-03T15:51:09;1014.3414057677088;;;30.2755859375;41.924315149237266
61740;BME280;47645;45.288;12.038;2022-09-03T16:01:11;1014.4384040501396;;;30.3521484375;42.094502222288476
61740;BME280;47645;45.288;12.038;2022-09-03T16:11:08;1014.3319168366814;;;30.234765625;42.35837229970072
61740;BME280;47645;45.288;12.038;2022-09-03T16:21:10;1014.2355891282252;;;29.806640625;42.72685005036133
61740;BME280;47645;45.288;12.038;2022-09-03T16:31:17;1014.3859653614667;;;29.388671875;44.39960645934677
61740;BME280;47645;45.288;12.038;2022-09-03T16:41:17;1014.3634526124125;;;28.5525390625;46.25669277568486
61740;BME280;47645;45.288;12.038;2022-09-03T16:51:18;1014.409242862954;;;28.27734375;47.01773624717169
61740;BME280;47645;45.288;12.038;2022-09-03T17:01:20;1014.399341746264;;;27.7521484375;48.14680487124019
61740;BME280;47645;45.288;12.038;2022-09-03T17:11:29;1014.4480159452896;;;27.471875;48.43952961993935
61740;BME280;47645;45.288;12.038;2022-09-03T17:21:35;1014.4975333680053;;;26.8958984375;49.30177919198331
61740;BME280;47645;45.288;12.038;2022-09-03T17:31:26;1014.6284256706707;;;26.6919921875;50.192322215205486
61740;BME280;47645;45.288;12.038;2022-09-03T17:41:25;1014.5381885807755;;;26.4013671875;50.528723000364316
61740;BME280;47645;45.288;12.038;2022-09-03T17:51:32;1014.7224750923208;;;26.12109375;51.22427435745539
61740;BME280;47645;45.288;12.038;2022-09-03T18:01:24;1014.8229956296917;;;25.815234375;51.77889393181978
61740;BME280;47645;45.288;12.038;2022-09-03T18:11:30;1014.8537537245511;;;25.53984375;52.391772606209095
61740;BME280;47645;45.288;12.038;2022-09-03T20:11:39;1015.6011109594742;;;23.3224609375;56.17866101443039
61740;BME280;47645;45.288;12.038;2022-09-03T20:21:44;1015.7798213670819;;;23.1185546875;57.298255374316646
61740;BME280;47645;45.288;12.038;2022-09-03T20:31:47;1015.8538591236158;;;22.8841796875;57.06531148796538
61740;BME280;47645;45.288;12.038;2022-09-03T20:41:48;1015.9165198804236;;;22.6802734375;58.86593014695153
61740;BME280;47645;45.288;12.038;2022-09-03T20:51:50;1015.9171520366491;;;22.726171875;57.44931999169153
61740;BME280;47645;45.288;12.038;2022-09-03T21:01:52;1015.9075564780683;;;22.7005859375;57.1499330296888
61740;BME280;47645;45.288;12.038;2022-09-03T21:11:51;1015.9393913407964;;;22.6087890625;57.34780305303802
61740;BME280;47645;45.288;12.038;2022-09-03T21:21:53;1015.9661621502439;;;22.54765625;57.18434307521415
61740;BME280;47645;45.288;12.038;2022-09-03T21:31:55;1015.9803169019707;;;22.445703125;57.34137124457749
61740;BME280;47645;45.288;12.038;2022-09-03T21:41:56;1015.9862312908158;;;21.997265625;59.633697891064934
61740;BME280;47645;45.288;12.038;2022-09-03T21:51:57;1016.0022596417834;;;21.5638671875;62.54955190674503
61740;BME280;47645;45.288;12.038;2022-09-03T22:01:59;1016.0390271483576;;;21.492578125;62.888743942450375
61740;BME280;47645;45.288;12.038;2022-09-03T22:11:59;1016.0685709268375;;;21.8953125;59.881731148650644
61740;BME280;47645;45.288;12.038;2022-09-03T22:22:00;1016.1501243706759;;;21.6046875;61.373465498331726
61740;BME280;47645;45.288;12.038;2022-09-03T22:32:01;1016.2357393679092;;;21.6810546875;60.272742704339485
61740;BME280;47645;45.288;12.038;2022-09-03T22:42:12;1016.3152203382748;;;21.5435546875;60.11200809361705
61740;BME280;47645;45.288;12.038;2022-09-03T22:52:12;1016.2819586886485;;;21.3599609375;63.980256594328175
61740;BME280;47645;45.288;12.038;2022-09-03T23:02:05;1016.2033431789116;;;21.059375;70.677103229761
61740;BME280;47645;45.288;12.038;2022-09-03T23:12:05;1016.1650034088889;;;21.16640625;67.97530720786422
61740;BME280;47645;45.288;12.038;2022-09-03T23:22:05;1016.1683842194639;;;20.9166015625;64.32087543568514
61740;BME280;47645;45.288;12.038;2022-09-03T23:32:04;1016.1994136243462;;;20.6974609375;66.38472769031226
61740;BME280;47645;45.288;12.038;2022-09-03T23:42:13;1016.1560621892761;;;21.4109375;59.88773242291222
61740;BME280;47645;45.288;12.038;2022-09-03T23:52:19;1016.020066306869;;;21.416015625;62.6109559173424
